^^
Your Local Weather - Clay, NY Station Historical Data
Daily Summary for January 17, 2018 Units:  Metric    English   Both
« Previous Day
Next Day »
Daily Weekly Monthly Yearly Custom
  High: Low: Average:
Temperature: -4.6 °C -16.9 °C -8.9 °C
Dew Point: -5.6 °C -18.7 °C -10.6 °C
Humidity: 93% 84% 88%
Wind Speed: 6.4km/h 0km/h 2.6km/h
Wind Gust: 14.5km/h - -
Wind- - WSW
Pressure: 1029 hPa 1020.2 hPa -
Precipitation: 0 mm    
Historical Graphs
 
 
Tabular Data for January 17, 2018
Time Temperature Dew Point Pressure Wind Wind Speed Wind Gust Humidity Rainfall Rate (Hourly) solar
00:00 -5.9 °C -6.8 °C 1027.3 hPa Calm     93% 0 mm 0 W/m2
00:05 -5.9 °C -6.8 °C 1027 hPa Calm     93% 0 mm 0 W/m2
00:18 -5.9 °C -6.9 °C 1027 hPa Calm     93% 0 mm 0 W/m2
00:24 -6 °C -6.9 °C 1027 hPa Calm     93% 0 mm 0 W/m2
00:32 -5.9 °C -6.9 °C 1027 hPa Calm     93% 0 mm 0 W/m2
00:38 -5.9 °C -6.9 °C 1027 hPa Calm     93% 0 mm 0 W/m2
00:44 -6 °C -6.9 °C 1027 hPa Calm     93% 0 mm 0 W/m2
00:49 -6 °C -6.9 °C 1027 hPa Calm     93% 0 mm 0 W/m2
00:56 -6 °C -6.9 °C 1027 hPa Calm     93% 0 mm 0 W/m2
01:02 -6.1 °C -7 °C 1026.6 hPa Calm     93% 0 mm 0 W/m2
01:08 -6.1 °C -7 °C 1026.6 hPa Calm     93% 0 mm 0 W/m2
01:14 -6.1 °C -7 °C 1027 hPa Calm     93% 0 mm 0 W/m2
01:19 -6 °C -6.9 °C 1026.6 hPa Calm     93% 0 mm 0 W/m2
01:26 -5.8 °C -6.9 °C 1026.6 hPa Calm     92% 0 mm 0 W/m2
01:34 -5.7 °C -6.6 °C 1026.6 hPa Calm     93% 0 mm 0 W/m2
01:40 -5.6 °C -6.5 °C 1026.6 hPa Calm     93% 0 mm 0 W/m2
01:46 -5.6 °C -6.5 °C 1026.6 hPa Calm     93% 0 mm 0 W/m2
01:52 -5.6 °C -6.5 °C 1026.6 hPa Calm     93% 0 mm 0 W/m2
01:58 -5.6 °C -6.6 °C 1026.6 hPa Calm     93% 0 mm 0 W/m2
02:03 -5.6 °C -6.6 °C 1026.6 hPa Calm     93% 0 mm 0 W/m2
02:10 -5.6 °C -6.6 °C 1026.6 hPa Calm     93% 0 mm 0 W/m2
02:16 -5.6 °C -6.5 °C 1026.6 hPa Calm     93% 0 mm 0 W/m2
02:22 -5.5 °C -6.4 °C 1026.6 hPa Calm     93% 0 mm 0 W/m2
02:28 -5.4 °C -6.4 °C 1026.6 hPa Calm     93% 0 mm 0 W/m2
02:34 -5.4 °C -6.3 °C 1026.6 hPa Calm     93% 0 mm 0 W/m2
02:40 -5.4 °C -6.3 °C 1026.6 hPa Calm     93% 0 mm 0 W/m2
02:45 -5.2 °C -6.1 °C 1027 hPa Calm   3.2 km/h 93% 0 mm 0 W/m2
02:52 -4.9 °C -5.9 °C 1027 hPa WSW 1.6 km/h 3.2 km/h 93% 0 mm 0 W/m2
03:00 -4.8 °C -5.7 °C 1027 hPa WSW 1.6 km/h 1.6 km/h 93% 0 mm 0 W/m2
03:05 -4.7 °C -5.7 °C 1027 hPa WSW 1.6 km/h 1.6 km/h 93% 0 mm 0 W/m2
03:12 -4.6 °C -5.6 °C 1027 hPa Calm     93% 0 mm 0 W/m2
03:25 -4.6 °C -5.6 °C 1027.3 hPa WNW 3.2 km/h 4.8 km/h 93% 0 mm 0 W/m2
03:32 -4.7 °C -5.6 °C 1027.3 hPa WNW 3.2 km/h 3.2 km/h 93% 0 mm 0 W/m2
03:38 -4.9 °C -5.8 °C 1027.3 hPa WNW 4.8 km/h 6.4 km/h 93% 0 mm 0 W/m2
03:44 -5 °C -5.9 °C 1027.3 hPa WNW 3.2 km/h 4.8 km/h 93% 0 mm 0 W/m2
03:49 -5.1 °C -6.1 °C 1027.3 hPa WNW 3.2 km/h 4.8 km/h 93% 0 mm 0 W/m2
03:58 -5.3 °C -6.4 °C 1027.3 hPa NW 4.8 km/h 4.8 km/h 92% 0 mm 0 W/m2
04:05 -5.4 °C -6.6 °C 1027.3 hPa WNW 3.2 km/h 4.8 km/h 92% 0 mm 0 W/m2
04:12 -5.6 °C -6.7 °C 1027.3 hPa WNW 3.2 km/h 4.8 km/h 92% 0 mm 0 W/m2
04:18 -5.7 °C -6.8 °C 1027.3 hPa WNW 4.8 km/h 8 km/h 92% 0 mm 0 W/m2
04:24 -5.9 °C -7 °C 1027.3 hPa WNW 4.8 km/h 8 km/h 92% 0 mm 0 W/m2
04:29 -6 °C -7.1 °C 1027.3 hPa West 4.8 km/h 4.8 km/h 92% 0 mm 0 W/m2
04:36 -6.2 °C -7.3 °C 1027.3 hPa West 3.2 km/h 6.4 km/h 92% 0 mm 0 W/m2
04:42 -6.4 °C -7.6 °C 1027.3 hPa WNW 4.8 km/h 4.8 km/h 92% 0 mm 0 W/m2
04:48 -6.7 °C -7.9 °C 1027.7 hPa WNW 4.8 km/h 4.8 km/h 91% 0 mm 0 W/m2
04:53 -6.8 °C -8.1 °C 1027.7 hPa West 4.8 km/h 4.8 km/h 91% 0 mm 0 W/m2
04:59 -7 °C -8.2 °C 1027.7 hPa WSW 4.8 km/h 4.8 km/h 91% 0 mm 0 W/m2
05:08 -7.2 °C -8.4 °C 1027.7 hPa WNW 3.2 km/h 4.8 km/h 91% 0 mm 0 W/m2
05:16 -7.4 °C -8.7 °C 1028 hPa WNW 4.8 km/h 6.4 km/h 91% 0 mm 0 W/m2
05:22 -7.6 °C -8.8 °C 1028 hPa West 4.8 km/h 4.8 km/h 91% 0 mm 0 W/m2
05:28 -7.7 °C -8.9 °C 1028 hPa WNW 3.2 km/h 6.4 km/h 91% 0 mm 0 W/m2
05:33 -7.7 °C -9.1 °C 1028 hPa NW 3.2 km/h 4.8 km/h 90% 0 mm 0 W/m2
05:46 -7.8 °C -9.2 °C 1028.3 hPa WNW 3.2 km/h 4.8 km/h 90% 0 mm 0 W/m2
05:52 -7.9 °C -9.3 °C 1028.3 hPa West 3.2 km/h 6.4 km/h 90% 0 mm 0 W/m2
05:58 -8.1 °C -9.4 °C 1028.7 hPa West 4.8 km/h 8 km/h 90% 0 mm 0 W/m2
06:08 -8.2 °C -9.6 °C 1028.7 hPa WNW 4.8 km/h 6.4 km/h 90% 0 mm 0 W/m2
06:14 -8.3 °C -9.6 °C 1028.7 hPa WSW 3.2 km/h 8 km/h 90% 0 mm 0 W/m2
06:20 -8.3 °C -9.7 °C 1028.7 hPa West 3.2 km/h 3.2 km/h 90% 0 mm 0 W/m2
06:25 -8.4 °C -9.7 °C 1028.7 hPa WSW 3.2 km/h 8 km/h 90% 0 mm 0 W/m2
06:32 -8.4 °C -9.8 °C 1028.7 hPa West 3.2 km/h 3.2 km/h 90% 0 mm 0 W/m2
06:46 -8.6 °C -9.9 °C 1028.7 hPa WSW 3.2 km/h 4.8 km/h 90% 0 mm 0 W/m2
06:52 -8.7 °C -10 °C 1028.7 hPa WSW 3.2 km/h 3.2 km/h 90% 0 mm 0 W/m2
06:58 -8.7 °C -10 °C 1028.7 hPa West 3.2 km/h 8 km/h 90% 0 mm 0 W/m2
07:04 -8.7 °C -10.2 °C 1028.7 hPa WSW 3.2 km/h 3.2 km/h 89% 0 mm 0 W/m2
07:10 -8.8 °C -10.1 °C 1028.7 hPa WSW 3.2 km/h 3.2 km/h 90% 0 mm 0 W/m2
07:16 -8.8 °C -10.3 °C 1028.7 hPa WNW 3.2 km/h 4.8 km/h 89% 0 mm 0 W/m2
07:22 -8.9 °C -10.4 °C 1028.7 hPa NW 3.2 km/h 9.7 km/h 89% 0 mm 0 W/m2
07:28 -8.9 °C -10.4 °C 1028.7 hPa West 3.2 km/h 9.7 km/h 89% 0 mm 0 W/m2
07:34 -8.9 °C -10.4 °C 1028.7 hPa WNW 3.2 km/h 3.2 km/h 89% 0 mm 0 W/m2
07:40 -8.9 °C -10.4 °C 1028.7 hPa WNW 3.2 km/h 3.2 km/h 89% 0 mm 0 W/m2
07:50 -9 °C -10.5 °C 1028.7 hPa WNW 3.2 km/h 3.2 km/h 89% 0 mm 0 W/m2
07:56 -9 °C -10.3 °C 1028.7 hPa WSW 3.2 km/h 3.2 km/h 90% 0 mm 0 W/m2
08:02 -9.1 °C -10.4 °C 1028.7 hPa West 3.2 km/h 3.2 km/h 90% 0 mm 5 W/m2
08:08 -9.1 °C -10.4 °C 1028.7 hPa WSW 3.2 km/h 4.8 km/h 90% 0 mm 7 W/m2
08:16 -9.1 °C -10.4 °C 1028.7 hPa WSW 1.6 km/h 4.8 km/h 90% 0 mm 9 W/m2
08:22 -9.1 °C -10.4 °C 1028.7 hPa SW 3.2 km/h 3.2 km/h 90% 0 mm 11 W/m2
08:29 -9.1 °C -10.4 °C 1029 hPa WSW 3.2 km/h 3.2 km/h 90% 0 mm 14 W/m2
08:36 -9.2 °C -10.7 °C 1029 hPa WSW 4.8 km/h 9.7 km/h 89% 0 mm 18 W/m2
08:42 -9.2 °C -10.7 °C 1029 hPa SW 4.8 km/h 4.8 km/h 89% 0 mm 19 W/m2
08:48 -9.2 °C -10.7 °C 1029 hPa WSW 3.2 km/h 4.8 km/h 89% 0 mm 21 W/m2
09:02 -9.1 °C -10.6 °C 1028.7 hPa WSW 1.6 km/h 3.2 km/h 89% 0 mm 30 W/m2
09:08 -9.1 °C -10.4 °C 1028.7 hPa WSW 3.2 km/h 3.2 km/h 90% 0 mm 32 W/m2
09:13 -9.1 °C -10.6 °C 1028.7 hPa WSW 3.2 km/h 9.7 km/h 89% 0 mm 37 W/m2
09:20 -9.1 °C -10.6 °C 1028.7 hPa WSW 3.2 km/h 4.8 km/h 89% 0 mm 49 W/m2
09:25 -9 °C -10.5 °C 1028.7 hPa WSW 1.6 km/h 4.8 km/h 89% 0 mm 62 W/m2
09:32 -9.1 °C -10.6 °C 1028.7 hPa SW 3.2 km/h 4.8 km/h 89% 0 mm 63 W/m2
09:38 -9 °C -10.5 °C 1028.7 hPa WNW 4.8 km/h 4.8 km/h 89% 0 mm 62 W/m2
09:44 -9 °C -10.5 °C 1028.7 hPa SW 3.2 km/h 6.4 km/h 89% 0 mm 56 W/m2
09:50 -9 °C -10.5 °C 1028.7 hPa WSW 3.2 km/h 6.4 km/h 89% 0 mm 62 W/m2
10:02 -8.9 °C -10.4 °C 1028.7 hPa West 3.2 km/h 4.8 km/h 89% 0 mm 67 W/m2
10:08 -8.9 °C -10.4 °C 1029 hPa WNW 3.2 km/h 8 km/h 89% 0 mm 65 W/m2
10:14 -8.9 °C -10.4 °C 1029 hPa WSW 3.2 km/h 4.8 km/h 89% 0 mm 60 W/m2
10:20 -8.9 °C -10.4 °C 1029 hPa West 3.2 km/h 3.2 km/h 89% 0 mm 69 W/m2
10:28 -8.9 °C -10.6 °C 1029 hPa West 4.8 km/h 8 km/h 88% 0 mm 83 W/m2
10:33 -9 °C -10.6 °C 1029 hPa WSW 4.8 km/h 9.7 km/h 88% 0 mm 90 W/m2
10:45 -8.7 °C -10.3 °C 1029 hPa West 3.2 km/h 8 km/h 88% 0 mm 88 W/m2
10:52 -8.7 °C -10.3 °C 1028.7 hPa WNW 4.8 km/h 4.8 km/h 88% 0 mm 84 W/m2
10:58 -8.7 °C -10.3 °C 1028.7 hPa West 4.8 km/h 4.8 km/h 88% 0 mm 81 W/m2
11:04 -8.7 °C -10.3 °C 1028.7 hPa SW 3.2 km/h 6.4 km/h 88% 0 mm 81 W/m2
11:09 -8.7 °C -10.5 °C 1028.7 hPa WSW 4.8 km/h 4.8 km/h 87% 0 mm 79 W/m2
11:15 -8.8 °C -10.6 °C 1028.7 hPa WSW 6.4 km/h 6.4 km/h 87% 0 mm 83 W/m2
11:22 -8.7 °C -10.5 °C 1028.7 hPa WSW 3.2 km/h 4.8 km/h 87% 0 mm 84 W/m2
11:28 -8.6 °C -10.4 °C 1028.3 hPa WNW 3.2 km/h 8 km/h 87% 0 mm 86 W/m2
11:34 -8.6 °C -10.4 °C 1028 hPa West 4.8 km/h 9.7 km/h 87% 0 mm 91 W/m2
11:39 -8.6 °C -10.4 °C 1028 hPa West 4.8 km/h 4.8 km/h 87% 0 mm 109 W/m2
11:46 -8.5 °C -10.3 °C 1028 hPa WSW 4.8 km/h 4.8 km/h 87% 0 mm 125 W/m2
11:52 -8.3 °C -10.1 °C 1027.7 hPa WSW 3.2 km/h 3.2 km/h 87% 0 mm 151 W/m2
12:02 -8.2 °C -10 °C 1027.7 hPa WSW 4.8 km/h 6.4 km/h 87% 0 mm 165 W/m2
12:08 -8.3 °C -10.1 °C 1027.3 hPa West 4.8 km/h 6.4 km/h 87% 0 mm 176 W/m2
12:14 -8.3 °C -10.2 °C 1027.3 hPa West 4.8 km/h 8 km/h 86% 0 mm 169 W/m2
12:19 -8.3 °C -10.3 °C 1027 hPa West 6.4 km/h 6.4 km/h 86% 0 mm 255 W/m2
12:32 -8.3 °C -10.2 °C 1027 hPa West 6.4 km/h 6.4 km/h 86% 0 mm 174 W/m2
12:40 -8.1 °C -10.1 °C 1027 hPa WNW 4.8 km/h 4.8 km/h 86% 0 mm 188 W/m2
12:52 -7.8 °C -9.8 °C 1026.6 hPa SW 4.8 km/h 4.8 km/h 86% 0 mm 612 W/m2
12:58 -7.4 °C -9.2 °C 1026.6 hPa WSW 4.8 km/h 4.8 km/h 87% 0 mm 605 W/m2
13:04 -7.6 °C -9.5 °C 1026.6 hPa West 4.8 km/h 9.7 km/h 86% 0 mm 566 W/m2
13:09 -7.7 °C -9.6 °C 1026.6 hPa WSW 4.8 km/h 4.8 km/h 86% 0 mm 417 W/m2
13:18 -7.7 °C -9.6 °C 1026.6 hPa WSW 4.8 km/h 9.7 km/h 86% 0 mm 492 W/m2
13:24 -7.6 °C -9.5 °C 1026.3 hPa West 4.8 km/h 6.4 km/h 86% 0 mm 642 W/m2
13:30 -7.5 °C -9.4 °C 1026.3 hPa West 6.4 km/h 6.4 km/h 86% 0 mm 510 W/m2
13:40 -7.6 °C -9.6 °C 1026.3 hPa West 4.8 km/h 4.8 km/h 86% 0 mm 207 W/m2
13:48 -7.7 °C -9.7 °C 1026 hPa WSW 4.8 km/h 4.8 km/h 86% 0 mm 185 W/m2
13:54 -7.4 °C -9.4 °C 1026 hPa SSW 3.2 km/h 9.7 km/h 86% 0 mm 487 W/m2
14:00 -7.2 °C -8.9 °C 1026 hPa West 3.2 km/h 3.2 km/h 87% 0 mm 513 W/m2
14:06 -7.1 °C -9 °C 1026 hPa WSW 4.8 km/h 6.4 km/h 86% 0 mm 510 W/m2
14:13 -7.1 °C -9 °C 1026 hPa South 3.2 km/h 8 km/h 86% 0 mm 550 W/m2
14:20 -6.9 °C -8.7 °C 1026 hPa SSW 4.8 km/h 4.8 km/h 87% 0 mm 494 W/m2
14:26 -6.9 °C -8.9 °C 1025.6 hPa SW 6.4 km/h 12.9 km/h 86% 0 mm 394 W/m2
14:32 -7.1 °C -9.1 °C 1025.6 hPa West 6.4 km/h 6.4 km/h 86% 0 mm 374 W/m2
14:38 -7.2 °C -9.1 °C 1025.6 hPa SW 6.4 km/h 6.4 km/h 86% 0 mm 352 W/m2
14:44 -7.1 °C -9.1 °C 1025.3 hPa WSW 4.8 km/h 9.7 km/h 86% 0 mm 336 W/m2
14:50 -6.9 °C -8.8 °C 1025.3 hPa West 3.2 km/h 3.2 km/h 86% 0 mm 264 W/m2
14:55 -6.7 °C -8.7 °C 1025.3 hPa West 3.2 km/h 6.4 km/h 86% 0 mm 297 W/m2
15:02 -6.9 °C -9 °C 1025.3 hPa WSW 4.8 km/h 6.4 km/h 85% 0 mm 278 W/m2
15:09 -6.9 °C -9.1 °C 1025.3 hPa SW 4.8 km/h 4.8 km/h 85% 0 mm 248 W/m2
15:16 -7.1 °C -9.2 °C 1025.3 hPa WSW 6.4 km/h 8 km/h 85% 0 mm 149 W/m2
15:22 -7.2 °C -9.3 °C 1025.3 hPa West 6.4 km/h 9.7 km/h 85% 0 mm 158 W/m2
15:30 -7.2 °C -9.3 °C 1025.3 hPa WSW 4.8 km/h 6.4 km/h 85% 0 mm 236 W/m2
15:40 -7.1 °C -9.2 °C 1025.3 hPa SSW 6.4 km/h 6.4 km/h 85% 0 mm 193 W/m2
15:46 -7.1 °C -9.2 °C 1024.9 hPa WSW 4.8 km/h 6.4 km/h 85% 0 mm 167 W/m2
15:54 -7.1 °C -9.2 °C 1024.9 hPa SSW 4.8 km/h 4.8 km/h 85% 0 mm 149 W/m2
16:04 -7.2 °C -9.3 °C 1024.9 hPa WSW 4.8 km/h 8 km/h 85% 0 mm 109 W/m2
16:16 -7.2 °C -9.3 °C 1024.6 hPa WSW 3.2 km/h 4.8 km/h 85% 0 mm 32 W/m2
16:22 -7.4 °C -9.6 °C 1024.9 hPa WSW 3.2 km/h 3.2 km/h 85% 0 mm 26 W/m2
16:25 -7.5 °C -9.6 °C 1024.6 hPa WSW 3.2 km/h 8 km/h 85% 0 mm 25 W/m2
16:28 -7.6 °C -9.7 °C 1024.6 hPa WSW 3.2 km/h 8 km/h 85% 0 mm 23 W/m2
16:34 -7.7 °C -9.8 °C 1024.6 hPa WSW 1.6 km/h 6.4 km/h 85% 0 mm 19 W/m2
16:39 -7.7 °C -9.8 °C 1024.6 hPa WSW 1.6 km/h 1.6 km/h 85% 0 mm 16 W/m2
16:46 -7.8 °C -9.9 °C 1024.6 hPa WSW 1.6 km/h 4.8 km/h 85% 0 mm 14 W/m2
16:52 -7.9 °C -10 °C 1024.6 hPa WSW 1.6 km/h 1.6 km/h 85% 0 mm 11 W/m2
16:56 -8 °C -10.1 °C 1024.3 hPa SW 1.6 km/h 8 km/h 85% 0 mm 7 W/m2
16:58 -8.1 °C -10.1 °C 1024.6 hPa West 1.6 km/h 8 km/h 85% 0 mm 5 W/m2
17:02 -8.1 °C -10.1 °C 1024.6 hPa SW 3.2 km/h 6.4 km/h 85% 0 mm 0 W/m2
17:06 -8.1 °C -10.2 °C 1024.3 hPa WSW 3.2 km/h 6.4 km/h 85% 0 mm 0 W/m2
17:12 -8.1 °C -10.2 °C 1024.3 hPa WSW 4.8 km/h 6.4 km/h 85% 0 mm 0 W/m2
17:18 -8.2 °C -10.2 °C 1024.3 hPa West 4.8 km/h 8 km/h 85% 0 mm 0 W/m2
17:26 -8.3 °C -10.3 °C 1024.3 hPa WSW 4.8 km/h 6.4 km/h 85% 0 mm 0 W/m2
17:32 -8.3 °C -10.4 °C 1024.3 hPa WSW 3.2 km/h 3.2 km/h 85% 0 mm 0 W/m2
17:38 -8.5 °C -10.6 °C 1024.3 hPa SW 1.6 km/h 4.8 km/h 85% 0 mm 0 W/m2
17:43 -8.6 °C -10.7 °C 1024.3 hPa SW 3.2 km/h 14.5 km/h 85% 0 mm 0 W/m2
17:49 -8.7 °C -10.8 °C 1024.3 hPa West 4.8 km/h 4.8 km/h 85% 0 mm 0 W/m2
17:56 -8.8 °C -10.8 °C 1024.6 hPa WSW 4.8 km/h 6.4 km/h 85% 0 mm 0 W/m2
18:00 -8.8 °C -10.9 °C 1024.6 hPa West 3.2 km/h 4.8 km/h 85% 0 mm 0 W/m2
18:06 -8.9 °C -11.2 °C 1024.6 hPa WSW 3.2 km/h 4.8 km/h 84% 0 mm 0 W/m2
18:12 -9.1 °C -11.3 °C 1024.3 hPa WSW 3.2 km/h 3.2 km/h 84% 0 mm 0 W/m2
18:18 -9.1 °C -11.2 °C 1024.3 hPa West 3.2 km/h 4.8 km/h 85% 0 mm 0 W/m2
18:23 -9.2 °C -11.3 °C 1024.3 hPa WSW 3.2 km/h 4.8 km/h 85% 0 mm 0 W/m2
18:30 -9.3 °C -11.5 °C 1024.3 hPa WSW 1.6 km/h 1.6 km/h 84% 0 mm 0 W/m2
18:36 -9.4 °C -11.4 °C 1024.3 hPa WSW 3.2 km/h 4.8 km/h 85% 0 mm 0 W/m2
18:42 -9.4 °C -11.4 °C 1024.3 hPa SW 3.2 km/h 8 km/h 85% 0 mm 0 W/m2
18:48 -9.4 °C -11.5 °C 1023.9 hPa SW 3.2 km/h 8 km/h 85% 0 mm 0 W/m2
18:54 -9.5 °C -11.6 °C 1023.9 hPa SW 3.2 km/h 9.7 km/h 85% 0 mm 0 W/m2
18:59 -9.6 °C -11.7 °C 1023.9 hPa SW 1.6 km/h 1.6 km/h 85% 0 mm 0 W/m2
19:05 -9.7 °C -11.8 °C 1023.9 hPa SW 1.6 km/h 4.8 km/h 85% 0 mm 0 W/m2
19:12 -9.7 °C -11.8 °C 1023.9 hPa WSW 1.6 km/h 3.2 km/h 85% 0 mm 0 W/m2
19:18 -9.8 °C -11.9 °C 1023.9 hPa WSW 1.6 km/h 3.2 km/h 85% 0 mm 0 W/m2
19:24 -9.9 °C -11.9 °C 1023.6 hPa Calm   3.2 km/h 85% 0 mm 0 W/m2
19:30 -10.1 °C -12.1 °C 1023.2 hPa Calm     85% 0 mm 0 W/m2
19:35 -10.2 °C -12.3 °C 1023.2 hPa Calm   3.2 km/h 85% 0 mm 0 W/m2
19:42 -10.4 °C -12.4 °C 1023.2 hPa Calm     85% 0 mm 0 W/m2
19:48 -10.5 °C -12.6 °C 1023.2 hPa Calm     85% 0 mm 0 W/m2
19:54 -10.6 °C -12.4 °C 1023.2 hPa Calm     86% 0 mm 0 W/m2
20:00 -10.7 °C -12.6 °C 1023.2 hPa Calm     86% 0 mm 0 W/m2
20:05 -10.9 °C -12.8 °C 1022.9 hPa Calm     86% 0 mm 0 W/m2
20:12 -11.2 °C -13.1 °C 1022.9 hPa Calm     86% 0 mm 0 W/m2
20:18 -11.5 °C -13.4 °C 1022.9 hPa Calm     86% 0 mm 0 W/m2
20:24 -11.8 °C -13.7 °C 1022.9 hPa Calm     86% 0 mm 0 W/m2
20:30 -12.1 °C -13.9 °C 1022.6 hPa Calm     86% 0 mm 0 W/m2
20:35 -12.2 °C -14.1 °C 1022.6 hPa Calm     86% 0 mm 0 W/m2
20:42 -12.4 °C -14.2 °C 1022.2 hPa Calm     86% 0 mm 0 W/m2
20:48 -12.6 °C -14.4 °C 1022.2 hPa Calm     86% 0 mm 0 W/m2
20:54 -12.8 °C -14.7 °C 1022.2 hPa Calm     86% 0 mm 0 W/m2
20:59 -13.1 °C -14.9 °C 1022.2 hPa Calm     86% 0 mm 0 W/m2
21:05 -13.3 °C -15.2 °C 1021.9 hPa Calm     86% 0 mm 0 W/m2
21:12 -13.6 °C -15.4 °C 1021.9 hPa Calm     86% 0 mm 0 W/m2
21:18 -13.8 °C -15.7 °C 1021.9 hPa Calm     86% 0 mm 0 W/m2
21:24 -14.1 °C -15.9 °C 1021.9 hPa Calm     86% 0 mm 0 W/m2
21:30 -14.3 °C -16.1 °C 1021.6 hPa Calm     86% 0 mm 0 W/m2
21:35 -14.5 °C -16.3 °C 1021.6 hPa Calm     86% 0 mm 0 W/m2
21:42 -14.7 °C -16.5 °C 1021.6 hPa Calm     86% 0 mm 0 W/m2
21:48 -14.7 °C -16.4 °C 1021.6 hPa Calm     87% 0 mm 0 W/m2
21:54 -14.8 °C -16.7 °C 1021.6 hPa Calm     86% 0 mm 0 W/m2
22:00 -14.9 °C -16.6 °C 1021.2 hPa Calm     87% 0 mm 0 W/m2
22:06 -15 °C -16.7 °C 1021.2 hPa Calm     87% 0 mm 0 W/m2
22:12 -15.2 °C -17 °C 1021.2 hPa Calm     86% 0 mm 0 W/m2
22:18 -15.3 °C -17.1 °C 1021.2 hPa Calm     86% 0 mm 0 W/m2
22:23 -15.4 °C -17.2 °C 1020.9 hPa Calm     86% 0 mm 0 W/m2
22:30 -15.4 °C -17.3 °C 1020.9 hPa Calm     86% 0 mm 0 W/m2
22:36 -15.6 °C -17.4 °C 1020.9 hPa Calm     86% 0 mm 0 W/m2
22:42 -15.7 °C -17.5 °C 1020.9 hPa Calm     86% 0 mm 0 W/m2
22:48 -15.8 °C -17.6 °C 1020.9 hPa Calm     86% 0 mm 0 W/m2
22:53 -15.8 °C -17.6 °C 1020.9 hPa Calm     86% 0 mm 0 W/m2
23:00 -15.8 °C -17.6 °C 1020.5 hPa Calm     86% 0 mm 0 W/m2
23:06 -15.9 °C -17.7 °C 1020.5 hPa Calm     86% 0 mm 0 W/m2
23:12 -16 °C -17.8 °C 1020.5 hPa Calm     86% 0 mm 0 W/m2
23:18 -16.1 °C -17.9 °C 1020.5 hPa Calm     86% 0 mm 0 W/m2
23:24 -16.2 °C -18 °C 1020.5 hPa Calm     86% 0 mm 0 W/m2
23:29 -16.4 °C -18.2 °C 1020.5 hPa Calm     86% 0 mm 0 W/m2
23:35 -16.6 °C -18.3 °C 1020.5 hPa Calm     86% 0 mm 0 W/m2
23:42 -16.7 °C -18.4 °C 1020.2 hPa Calm     86% 0 mm 0 W/m2
23:48 -16.7 °C -18.5 °C 1020.2 hPa Calm     86% 0 mm 0 W/m2
23:54 -16.8 °C -18.6 °C 1020.2 hPa Calm     86% 0 mm 0 W/m2
23:59 -16.9 °C -18.7 °C 1020.2 hPa Calm     86% 0 mm 0 W/m2
Country Meadow, Clay, NY, USA
Compliments of Weather Underground - 2 mb